Carmarthen, United Kingdom
Current Conditions -  °F | °C
As of 9:50 AM on Friday 24 Oct 2014 (Local Time) from EGOP Reporting Station
Drizzle Drizzle  
Wind Chill: 55°   Ceiling: 400
Heat Index: 55°   Visibility: 1.8mi
Dew Point: 55°   Wind: 5mph
Humidity: 100%   Direction: 290°WNW
Pressure: 29.91"   Gusts: NA
Location:  51.86°N, 4.31°W
Report Text: EGOP 240850Z 29004KT 3000 -DZ OVC004 13/13 Q1013 YLO2
Loading
Personal Weather Stations






























Interactive Weather Map New forecast layout! Learn more

10-Day Weather Forecast

Advertisements
Track Severe Weather on mobile